createdAt,value
2023-02-03T00:01:25.185Z,1.88
2023-02-03T00:03:52.477Z,1.92
2023-02-03T00:06:20.119Z,2.03
2023-02-03T00:08:48.041Z,2.47
2023-02-03T00:11:15.432Z,1.60
2023-02-03T00:13:42.752Z,1.65
2023-02-03T00:16:10.125Z,2.15
2023-02-03T00:18:37.525Z,1.65
2023-02-03T00:21:05.496Z,1.90
2023-02-03T00:23:32.906Z,1.60
2023-02-03T00:26:16.054Z,1.55
2023-02-03T00:28:44.295Z,1.95
2023-02-03T00:31:18.739Z,1.30
2023-02-03T00:33:46.253Z,2.10
2023-02-03T00:36:14.560Z,1.90
2023-02-03T00:38:41.834Z,1.40
2023-02-03T00:41:09.100Z,1.90
2023-02-03T00:43:37.301Z,1.83
2023-02-03T00:46:04.764Z,1.80
2023-02-03T00:48:32.183Z,2.00
2023-02-03T00:50:59.613Z,2.00
2023-02-03T00:53:26.963Z,1.85
2023-02-03T00:55:54.265Z,2.15
2023-02-03T00:58:21.511Z,2.25
2023-02-03T01:00:48.866Z,1.70
2023-02-03T01:03:17.665Z,1.85
2023-02-03T01:05:45.221Z,1.77
2023-02-03T01:08:12.661Z,1.85
2023-02-03T01:10:41.566Z,2.10
2023-02-03T01:13:09.066Z,2.05
2023-02-03T01:15:36.400Z,2.53
2023-02-03T01:18:03.897Z,1.90
2023-02-03T01:20:31.178Z,1.90
2023-02-03T01:22:58.707Z,2.30
2023-02-03T01:25:26.184Z,2.25
2023-02-03T01:27:53.528Z,2.08
2023-02-03T01:30:20.855Z,2.25
2023-02-03T01:32:49.649Z,1.90
2023-02-03T01:35:17.480Z,1.70
2023-02-03T01:37:44.900Z,2.00
2023-02-03T01:40:13.348Z,2.75
2023-02-03T01:42:40.653Z,2.30
2023-02-03T01:45:12.485Z,1.90
2023-02-03T01:47:49.093Z,2.47
2023-02-03T01:50:26.771Z,2.22
2023-02-03T01:53:03.033Z,2.25
2023-02-03T01:55:44.700Z,1.90
2023-02-03T01:58:17.310Z,2.20
2023-02-03T02:00:45.425Z,1.88
2023-02-03T02:03:14.011Z,2.15
2023-02-03T02:06:01.072Z,1.90
2023-02-03T02:08:30.011Z,2.42
2023-02-03T02:10:59.936Z,1.90
2023-02-03T02:13:35.203Z,1.80
2023-02-03T02:16:05.838Z,1.52
2023-02-03T02:18:57.694Z,2.05
2023-02-03T02:21:42.445Z,1.60
2023-02-03T02:24:46.757Z,1.48
2023-02-03T02:27:55.566Z,2.83
2023-02-03T02:30:45.392Z,1.83
2023-02-03T02:33:22.967Z,1.50
2023-02-03T02:35:56.269Z,1.55
2023-02-03T02:38:45.681Z,1.73
2023-02-03T02:41:49.954Z,1.50
2023-02-03T02:44:33.598Z,2.05
2023-02-03T02:47:08.506Z,1.60
2023-02-03T02:49:54.899Z,1.40
2023-02-03T02:52:24.472Z,1.83
2023-02-03T02:54:54.876Z,2.95
2023-02-03T02:57:25.777Z,1.90
2023-02-03T02:59:54.025Z,1.85
2023-02-03T03:02:21.460Z,2.40
2023-02-03T03:04:51.267Z,1.45
2023-02-03T03:07:26.437Z,2.10
2023-02-03T03:10:00.708Z,2.13
2023-02-03T03:12:34.162Z,1.90
2023-02-03T03:15:07.423Z,1.95
2023-02-03T03:17:41.732Z,1.65
2023-02-03T03:20:14.940Z,1.55
2023-02-03T03:22:48.669Z,2.30
2023-02-03T03:25:24.847Z,2.50
2023-02-03T03:27:58.911Z,1.77
2023-02-03T03:30:33.591Z,1.70
2023-02-03T03:33:02.400Z,1.85
2023-02-03T03:35:46.073Z,1.23
2023-02-03T03:38:22.503Z,1.40
2023-02-03T03:43:23.823Z,2.47
2023-02-03T03:46:02.866Z,2.10
2023-02-03T03:48:49.003Z,3.08
2023-02-03T03:51:41.588Z,1.77
2023-02-03T03:54:14.015Z,1.40
2023-02-03T03:57:00.638Z,1.65
2023-02-03T03:59:34.314Z,1.23
2023-02-03T04:02:04.794Z,1.48
2023-02-03T04:04:35.243Z,2.10
2023-02-03T04:07:02.585Z,1.20
2023-02-03T04:09:29.957Z,1.58
2023-02-03T04:12:03.485Z,1.90
2023-02-03T04:14:37.953Z,1.70
2023-02-03T04:17:05.596Z,1.40
2023-02-03T04:19:32.922Z,1.92
2023-02-03T04:22:01.431Z,1.55
2023-02-03T04:24:28.681Z,1.35
2023-02-03T04:26:56.012Z,1.60
2023-02-03T04:29:23.423Z,1.60
2023-02-03T04:31:50.799Z,1.60
2023-02-03T04:34:18.076Z,2.67
2023-02-03T04:36:45.636Z,1.40
2023-02-03T04:39:12.919Z,2.28
2023-02-03T04:41:40.227Z,2.15
2023-02-03T04:44:07.776Z,1.70
2023-02-03T04:46:35.550Z,1.58
2023-02-03T04:49:02.941Z,1.60
2023-02-03T04:51:30.604Z,1.50
2023-02-03T04:53:58.370Z,1.75
2023-02-03T04:56:25.676Z,1.70
2023-02-03T04:58:54.404Z,1.42
2023-02-03T05:01:22.993Z,1.83
2023-02-03T05:03:50.508Z,1.52
2023-02-03T05:06:22.298Z,2.47
2023-02-03T05:08:49.627Z,1.70
2023-02-03T05:11:16.925Z,1.80
2023-02-03T05:13:44.210Z,1.50
2023-02-03T05:16:11.520Z,1.95
2023-02-03T05:18:39.879Z,1.75
2023-02-03T05:21:07.292Z,1.98
2023-02-03T05:23:36.630Z,1.77
2023-02-03T05:26:04.861Z,1.38
2023-02-03T05:28:32.153Z,1.70
2023-02-03T05:31:00.540Z,1.70
2023-02-03T05:33:28.899Z,1.83
2023-02-03T05:35:56.571Z,1.80
2023-02-03T05:38:25.033Z,1.58
2023-02-03T05:41:11.979Z,2.00
2023-02-03T05:46:07.874Z,1.60
2023-02-03T05:48:35.518Z,1.90
2023-02-03T05:51:02.845Z,2.63
2023-02-03T05:53:30.386Z,1.70
2023-02-03T05:55:57.652Z,2.25
2023-02-03T05:58:25.000Z,2.00
2023-02-03T06:00:52.477Z,2.08
2023-02-03T06:03:19.892Z,2.05
2023-02-03T06:05:47.188Z,2.70
2023-02-03T06:08:16.720Z,2.03
2023-02-03T06:10:44.142Z,2.38
2023-02-03T06:13:13.681Z,2.85
2023-02-03T06:15:41.427Z,1.70
2023-02-03T06:18:09.767Z,2.10
2023-02-03T06:20:37.338Z,1.98
2023-02-03T06:23:04.795Z,2.95
2023-02-03T06:25:32.810Z,2.08
2023-02-03T06:28:00.352Z,2.50
2023-02-03T06:30:28.371Z,2.47
2023-02-03T06:32:56.099Z,3.35
2023-02-03T06:35:24.565Z,2.53
2023-02-03T06:37:51.929Z,2.28
2023-02-03T06:40:20.888Z,2.30
2023-02-03T06:42:49.037Z,2.10
2023-02-03T06:45:16.389Z,3.22
2023-02-03T06:47:45.140Z,2.13
2023-02-03T06:50:15.981Z,1.88
2023-02-03T06:52:43.571Z,1.90
2023-02-03T06:55:11.043Z,1.80
2023-02-03T06:57:45.082Z,2.03
2023-02-03T07:00:15.117Z,2.28
2023-02-03T07:02:44.434Z,2.10
2023-02-03T07:05:14.397Z,2.10
2023-02-03T07:07:41.777Z,3.13
2023-02-03T07:10:10.581Z,2.10
2023-02-03T07:12:38.329Z,3.17
2023-02-03T07:15:07.208Z,2.10
2023-02-03T07:17:34.734Z,2.15
2023-02-03T07:20:02.071Z,2.78
2023-02-03T07:22:29.546Z,2.38
2023-02-03T07:24:59.280Z,2.42
2023-02-03T07:27:28.056Z,1.95
2023-02-03T07:29:55.379Z,2.47
2023-02-03T07:32:22.688Z,2.70
2023-02-03T07:34:50.570Z,2.20
2023-02-03T07:37:17.795Z,2.28
2023-02-03T07:39:46.774Z,2.17
2023-02-03T07:42:14.095Z,2.22
2023-02-03T07:44:41.357Z,2.85
2023-02-03T07:47:08.685Z,3.70
2023-02-03T07:49:35.934Z,2.83
2023-02-03T07:52:03.740Z,3.58
2023-02-03T07:54:31.089Z,4.05
2023-02-03T07:56:58.427Z,2.72
2023-02-03T07:59:26.921Z,2.70
2023-02-03T08:01:56.345Z,2.22
2023-02-03T08:04:24.681Z,2.28
2023-02-03T08:06:52.015Z,2.60
2023-02-03T08:09:19.272Z,2.58
2023-02-03T08:11:46.572Z,2.90
2023-02-03T08:14:14.076Z,1.92
2023-02-03T08:16:41.404Z,2.70
2023-02-03T08:19:08.675Z,2.97
2023-02-03T08:21:36.221Z,2.08
2023-02-03T08:24:05.495Z,1.90
2023-02-03T08:26:32.885Z,2.42
2023-02-03T08:29:00.188Z,2.40
2023-02-03T08:31:27.710Z,1.67
2023-02-03T08:33:56.073Z,2.08
2023-02-03T08:36:23.541Z,2.00
2023-02-03T08:38:50.880Z,2.53
2023-02-03T08:41:18.830Z,2.28
2023-02-03T08:43:46.312Z,1.77
2023-02-03T08:46:15.161Z,2.13
2023-02-03T08:48:42.532Z,2.95
2023-02-03T08:51:16.983Z,2.15
2023-02-03T08:53:44.582Z,1.67
2023-02-03T08:56:13.103Z,2.55
2023-02-03T08:58:40.524Z,2.20
2023-02-03T09:01:13.578Z,2.20
2023-02-03T09:03:41.123Z,3.25
2023-02-03T09:06:12.004Z,3.08
2023-02-03T09:08:39.838Z,3.53
2023-02-03T09:11:12.305Z,5.43
2023-02-03T09:13:43.238Z,3.60
2023-02-03T09:16:10.707Z,5.97
2023-02-03T09:18:38.666Z,4.07
2023-02-03T09:21:08.674Z,3.78
2023-02-03T09:23:36.176Z,3.20
2023-02-03T09:26:05.081Z,2.78
2023-02-03T09:28:34.016Z,2.83
2023-02-03T09:31:07.071Z,2.20
2023-02-03T09:33:34.974Z,2.72
2023-02-03T09:36:02.998Z,3.72
2023-02-03T09:38:32.204Z,3.50
2023-02-03T09:41:30.624Z,2.80
2023-02-03T09:44:16.686Z,3.55
2023-02-03T09:46:59.186Z,2.63
2023-02-03T09:49:50.566Z,2.72
2023-02-03T09:52:44.563Z,2.30
2023-02-03T09:55:35.223Z,3.05
2023-02-03T09:58:23.312Z,2.92
2023-02-03T10:01:01.218Z,2.90
2023-02-03T10:03:28.598Z,2.42
2023-02-03T10:06:23.367Z,3.00
2023-02-03T10:08:50.710Z,2.42
2023-02-03T10:11:38.022Z,3.00
2023-02-03T10:14:27.056Z,2.90
2023-02-03T10:17:30.575Z,3.42
2023-02-03T10:20:06.788Z,3.10
2023-02-03T10:22:40.749Z,2.92
2023-02-03T10:25:20.944Z,2.95
2023-02-03T10:27:50.015Z,2.78
2023-02-03T10:30:22.167Z,2.85
2023-02-03T10:33:00.582Z,2.88
2023-02-03T10:35:41.018Z,2.80
2023-02-03T10:38:15.659Z,2.90
2023-02-03T10:40:43.017Z,2.90
2023-02-03T10:43:30.295Z,3.25
2023-02-03T10:45:59.208Z,2.80
2023-02-03T10:48:27.338Z,3.22
2023-02-03T10:50:55.723Z,3.35
2023-02-03T10:53:32.120Z,2.97
2023-02-03T10:58:36.702Z,3.08
2023-02-03T11:01:28.816Z,2.72
2023-02-03T11:04:00.312Z,3.63
2023-02-03T11:06:28.820Z,4.82
2023-02-03T11:08:57.145Z,4.47
2023-02-03T11:11:34.484Z,3.65
2023-02-03T11:14:04.656Z,3.88
2023-02-03T11:16:34.389Z,3.70
2023-02-03T11:19:04.625Z,4.38
2023-02-03T11:21:38.827Z,4.20
2023-02-03T11:24:24.191Z,4.40
2023-02-03T11:26:57.127Z,4.18
2023-02-03T11:29:28.601Z,4.47
2023-02-03T11:31:59.021Z,5.20
2023-02-03T11:34:32.402Z,3.83
2023-02-03T11:37:31.248Z,3.70
2023-02-03T11:40:07.778Z,3.55
2023-02-03T11:42:37.443Z,3.97
2023-02-03T11:45:14.337Z,3.55
2023-02-03T11:47:54.509Z,4.10
2023-02-03T11:50:30.836Z,4.05
2023-02-03T11:53:07.205Z,3.17
2023-02-03T11:55:45.192Z,3.38
2023-02-03T11:58:32.295Z,3.33
2023-02-03T12:01:18.271Z,3.38
2023-02-03T12:04:03.930Z,4.37
2023-02-03T12:06:41.883Z,4.18
2023-02-03T12:09:33.523Z,5.00
2023-02-03T12:12:23.195Z,3.10
2023-02-03T12:15:22.972Z,4.13
2023-02-03T12:17:50.231Z,3.60
2023-02-03T12:20:31.726Z,3.63
2023-02-03T12:23:22.876Z,2.80
2023-02-03T12:26:11.684Z,2.83
2023-02-03T12:28:45.650Z,3.15
2023-02-03T12:31:21.528Z,3.30
2023-02-03T12:34:12.781Z,3.60
2023-02-03T12:36:48.006Z,3.20
2023-02-03T12:39:26.671Z,3.83
2023-02-03T12:42:03.439Z,6.82
2023-02-03T12:44:56.642Z,3.83
2023-02-03T12:47:59.086Z,5.18
2023-02-03T12:50:36.788Z,3.95
2023-02-03T12:53:06.294Z,3.05
2023-02-03T12:55:55.852Z,2.90
2023-02-03T12:58:25.641Z,2.92
2023-02-03T13:01:05.546Z,3.05
2023-02-03T13:03:51.101Z,4.55
2023-02-03T13:06:27.680Z,2.60
2023-02-03T13:09:01.810Z,3.50
2023-02-03T13:11:51.543Z,2.58
2023-02-03T13:14:28.664Z,3.60
2023-02-03T13:17:01.855Z,2.60
2023-02-03T13:19:40.188Z,2.50
2023-02-03T13:22:13.585Z,3.72
2023-02-03T13:24:52.642Z,2.38
2023-02-03T13:27:47.446Z,2.13
2023-02-03T13:30:27.094Z,2.63
2023-02-03T13:33:33.177Z,1.83
2023-02-03T13:36:23.177Z,2.20
2023-02-03T13:39:27.011Z,2.55
2023-02-03T13:41:57.360Z,3.05
2023-02-03T13:44:28.629Z,2.45
2023-02-03T13:46:59.112Z,2.63
2023-02-03T13:49:33.072Z,2.42
2023-02-03T13:52:01.009Z,2.08
2023-02-03T13:54:43.397Z,2.92
2023-02-03T13:57:31.470Z,2.83
2023-02-03T13:59:59.138Z,2.50
2023-02-03T14:02:26.418Z,2.83
2023-02-03T14:04:55.951Z,2.65
2023-02-03T14:07:40.551Z,2.78
2023-02-03T14:10:17.156Z,2.70
2023-02-03T14:12:50.744Z,2.22
2023-02-03T14:15:32.267Z,2.83
2023-02-03T14:18:33.465Z,2.92
2023-02-03T14:21:24.602Z,3.13
2023-02-03T14:24:00.398Z,2.80
2023-02-03T14:26:43.802Z,2.47
2023-02-03T14:29:36.712Z,3.03
2023-02-03T14:32:09.582Z,2.75
2023-02-03T14:34:50.165Z,3.30
2023-02-03T14:37:32.160Z,3.40
2023-02-03T14:40:14.259Z,3.08
2023-02-03T14:43:11.513Z,2.45
2023-02-03T14:45:45.367Z,2.40
2023-02-03T14:48:30.777Z,3.35
2023-02-03T14:51:25.774Z,3.80
2023-02-03T14:54:16.761Z,2.90
2023-02-03T14:57:19.859Z,2.78
2023-02-03T14:59:57.182Z,2.58
2023-02-03T15:02:31.204Z,5.05
2023-02-03T15:05:14.253Z,3.10
2023-02-03T15:07:50.104Z,3.30
2023-02-03T15:10:20.607Z,2.88
2023-02-03T15:12:53.242Z,4.18
2023-02-03T15:15:29.972Z,3.25
2023-02-03T15:17:59.854Z,3.38
2023-02-03T15:20:34.971Z,3.90
2023-02-03T15:23:03.768Z,2.80
2023-02-03T15:25:33.428Z,3.17
2023-02-03T15:28:33.211Z,2.80
2023-02-03T15:31:09.913Z,2.63
2023-02-03T15:33:38.772Z,2.85
2023-02-03T15:36:14.074Z,3.22
2023-02-03T15:38:49.148Z,2.75
2023-02-03T15:41:23.395Z,3.25
2023-02-03T15:44:17.341Z,2.67
2023-02-03T15:46:49.232Z,2.75
2023-02-03T15:49:40.291Z,2.90
2023-02-03T15:52:27.449Z,2.65
2023-02-03T15:55:04.094Z,2.50
2023-02-03T15:57:34.658Z,2.65
2023-02-03T16:00:24.943Z,2.72
2023-02-03T16:02:54.252Z,2.78
2023-02-03T16:05:28.005Z,2.60
2023-02-03T16:07:55.995Z,2.60
2023-02-03T16:10:34.191Z,2.58
2023-02-03T16:13:24.330Z,2.65
2023-02-03T16:16:04.411Z,1.98
2023-02-03T16:18:36.670Z,2.15
2023-02-03T16:21:22.075Z,2.28
2023-02-03T16:23:50.153Z,2.83
2023-02-03T16:26:19.599Z,2.80
2023-02-03T16:29:15.494Z,3.00
2023-02-03T16:32:05.097Z,3.20
2023-02-03T16:34:51.155Z,2.67
2023-02-03T16:37:46.273Z,2.67
2023-02-03T16:40:36.982Z,2.60
2023-02-03T16:43:30.855Z,2.03
2023-02-03T16:46:19.465Z,2.65
2023-02-03T16:49:05.513Z,2.60
2023-02-03T16:51:40.367Z,2.57
2023-02-03T16:54:18.290Z,2.50
2023-02-03T16:56:45.711Z,2.72
2023-02-03T16:59:13.719Z,2.90
2023-02-03T17:01:41.074Z,2.42
2023-02-03T17:04:11.150Z,2.50
2023-02-03T17:06:39.788Z,2.60
2023-02-03T17:09:08.770Z,3.28
2023-02-03T17:11:36.645Z,3.63
2023-02-03T17:14:04.538Z,3.67
2023-02-03T17:16:33.485Z,3.40
2023-02-03T17:19:01.168Z,3.88
2023-02-03T17:21:30.011Z,3.63
2023-02-03T17:23:59.390Z,4.13
2023-02-03T17:26:26.833Z,3.88
2023-02-03T17:28:54.392Z,4.60
2023-02-03T17:31:21.854Z,3.55
2023-02-03T17:33:52.556Z,3.45
2023-02-03T17:36:21.960Z,3.92
2023-02-03T17:55:24.048Z,3.67
2023-02-03T17:57:52.071Z,3.58
2023-02-03T18:00:19.947Z,3.55
2023-02-03T18:02:52.051Z,4.00
2023-02-03T18:05:19.730Z,4.22
2023-02-03T18:10:15.848Z,4.28
2023-02-03T18:12:43.739Z,4.72
2023-02-03T18:15:11.027Z,4.40
2023-02-03T18:17:39.516Z,3.10
2023-02-03T18:20:07.503Z,3.65
2023-02-03T18:22:34.834Z,3.22
2023-02-03T18:25:03.542Z,3.30
2023-02-03T18:27:31.031Z,3.88
2023-02-03T18:29:58.344Z,3.70
2023-02-03T18:32:25.736Z,3.35
2023-02-03T18:34:53.217Z,3.75
2023-02-03T18:37:20.680Z,3.75
2023-02-03T18:39:48.263Z,3.85
2023-02-03T18:42:15.786Z,3.95
2023-02-03T18:44:44.209Z,3.85
2023-02-03T18:47:11.574Z,3.05
2023-02-03T18:49:39.710Z,3.85
2023-02-03T18:52:07.241Z,3.63
2023-02-03T18:54:34.558Z,3.47
2023-02-03T18:57:03.122Z,3.25
2023-02-03T18:59:30.684Z,3.35
2023-02-03T19:01:57.974Z,2.42
2023-02-03T19:04:25.550Z,3.10
2023-02-03T19:06:53.014Z,3.47
2023-02-03T19:09:22.356Z,2.88
2023-02-03T19:11:49.909Z,3.67
2023-02-03T19:14:17.600Z,3.53
2023-02-03T19:16:45.033Z,3.88
2023-02-03T19:19:14.292Z,3.00
2023-02-03T19:21:41.630Z,2.80
2023-02-03T19:24:09.124Z,3.63
2023-02-03T19:26:36.630Z,3.13
2023-02-03T19:29:04.015Z,2.75
2023-02-03T19:31:31.513Z,2.83
2023-02-03T19:33:59.956Z,2.58
2023-02-03T19:36:30.975Z,2.72
2023-02-03T19:38:58.300Z,3.22
2023-02-03T19:41:30.841Z,2.83
2023-02-03T19:43:59.734Z,2.75
2023-02-03T19:46:31.850Z,2.92
2023-02-03T19:48:59.216Z,4.00
2023-02-03T19:51:26.709Z,2.72
2023-02-03T19:53:54.010Z,3.10
2023-02-03T19:56:21.408Z,3.30
2023-02-03T19:58:52.652Z,2.42
2023-02-03T20:01:21.244Z,3.17
2023-02-03T20:03:49.116Z,3.05
2023-02-03T20:06:16.839Z,2.40
2023-02-03T20:08:47.476Z,2.83
2023-02-03T20:11:14.933Z,3.13
2023-02-03T20:13:43.523Z,3.30
2023-02-03T20:16:11.364Z,2.47
2023-02-03T20:18:38.958Z,3.38
2023-02-03T20:21:06.691Z,2.83
2023-02-03T20:23:33.963Z,3.42
2023-02-03T20:26:02.732Z,2.58
2023-02-03T20:28:30.215Z,5.10
2023-02-03T20:31:01.619Z,4.35
2023-02-03T20:33:30.543Z,5.22
2023-02-03T20:35:58.105Z,4.65
2023-02-03T20:38:27.068Z,4.50
2023-02-03T20:40:54.781Z,4.05
2023-02-03T20:43:28.027Z,3.78
2023-02-03T20:45:56.311Z,4.03
2023-02-03T20:48:25.710Z,3.53
2023-02-03T20:50:53.283Z,4.05
2023-02-03T20:53:24.022Z,4.28
2023-02-03T20:55:52.427Z,4.65
2023-02-03T20:58:26.447Z,4.95
2023-02-03T21:00:57.177Z,4.15
2023-02-03T21:03:44.132Z,4.25
2023-02-03T21:08:44.210Z,4.43
2023-02-03T21:11:14.526Z,4.35
2023-02-03T21:13:45.274Z,5.10
2023-02-03T21:16:17.518Z,4.20
2023-02-03T21:18:52.502Z,4.65
2023-02-03T21:21:27.556Z,6.57
2023-02-03T21:23:55.963Z,6.10
2023-02-03T21:26:26.209Z,5.20
2023-02-03T21:28:55.885Z,6.03
2023-02-03T21:31:34.203Z,5.40
2023-02-03T21:34:21.975Z,6.45
2023-02-03T21:36:49.741Z,4.63
2023-02-03T21:39:34.278Z,6.15
2023-02-03T21:42:19.117Z,6.15
2023-02-03T21:44:46.440Z,6.03
2023-02-03T21:47:18.852Z,5.88
2023-02-03T21:49:46.171Z,6.70
2023-02-03T21:52:14.404Z,7.32
2023-02-03T21:54:44.331Z,6.30
2023-02-03T21:57:17.626Z,6.30
2023-02-03T21:59:49.271Z,6.30
2023-02-03T22:02:39.056Z,7.50
2023-02-03T22:05:14.868Z,6.10
2023-02-03T22:07:42.877Z,5.40
2023-02-03T22:10:10.325Z,5.60
2023-02-03T22:12:37.712Z,6.05
2023-02-03T22:15:05.380Z,5.15
2023-02-03T22:17:32.677Z,5.68
2023-02-03T22:20:00.055Z,5.45
2023-02-03T22:22:27.472Z,6.38
2023-02-03T22:24:58.732Z,6.07
2023-02-03T22:27:26.171Z,5.70
2023-02-03T22:29:56.481Z,5.30
2023-02-03T22:32:23.952Z,6.07
2023-02-03T22:34:51.329Z,6.65
2023-02-03T22:37:18.721Z,6.60
2023-02-03T22:39:46.363Z,6.55
2023-02-03T22:42:14.510Z,7.28
2023-02-03T22:44:41.832Z,6.43
2023-02-03T22:47:09.448Z,6.75
2023-02-03T22:49:36.762Z,7.63
2023-02-03T22:52:04.341Z,7.22
2023-02-03T22:54:32.219Z,7.00
2023-02-03T22:56:59.514Z,7.72
2023-02-03T22:59:26.877Z,7.88
2023-02-03T23:01:54.212Z,6.63
2023-02-03T23:04:22.920Z,7.93
2023-02-03T23:06:50.242Z,7.57
2023-02-03T23:09:17.810Z,8.15
2023-02-03T23:11:45.169Z,7.93
2023-02-03T23:14:13.885Z,8.73
2023-02-03T23:16:41.353Z,8.20
2023-02-03T23:19:09.193Z,8.32
2023-02-03T23:21:36.508Z,7.43
2023-02-03T23:24:05.264Z,7.38
2023-02-03T23:26:33.171Z,7.65
2023-02-03T23:29:00.833Z,7.28
2023-02-03T23:31:28.505Z,7.18
2023-02-03T23:34:34.166Z,7.00
2023-02-03T23:37:01.535Z,7.57
2023-02-03T23:39:30.103Z,8.57
2023-02-03T23:41:58.124Z,7.45
2023-02-03T23:44:25.533Z,7.97
2023-02-03T23:46:52.931Z,8.27
2023-02-03T23:49:20.453Z,7.78
2023-02-03T23:51:47.848Z,7.38
2023-02-03T23:54:15.286Z,7.40
2023-02-03T23:56:42.751Z,6.82
2023-02-03T23:59:10.113Z,7.38
